Time;durP1;ratioP1;P1;durP2;ratioP2;P2;SDS_P1;SDS_P2;PMS_P1;PMS_P2;Temp;Humidity;BMP_temperature;BMP_pressure;BME280_temperature;BME280_humidity;BME280_pressure;Samples;Min_cycle;Max_cycle;Signal;HPM_P1;HPM_P2
2021/09/04 00:00:35;;;;;;;32.58;15.52;;;;;;;14.18;79.10;101963.97;5040664;28;20047;-40
2021/09/04 00:03:01;;;;;;;26.23;14.60;;;;;;;14.19;79.01;101969.22;5044755;28;20500;-40
2021/09/04 00:05:28;;;;;;;30.67;15.73;;;;;;;14.16;78.91;101969.56;5034271;28;20423;-40
2021/09/04 00:07:53;;;;;;;23.10;14.73;;;;;;;14.14;78.93;101965.34;5034562;28;20107;-40
2021/09/04 00:10:19;;;;;;;26.27;13.43;;;;;;;14.07;78.94;101965.22;5039654;28;20104;-39
2021/09/04 00:12:44;;;;;;;31.65;14.95;;;;;;;14.00;79.15;101964.22;5047917;28;20044;-39
2021/09/04 00:15:10;;;;;;;26.80;14.70;;;;;;;13.98;79.17;101966.25;5033985;28;20044;-39
2021/09/04 00:17:36;;;;;;;27.02;14.25;;;;;;;13.97;79.23;101962.72;5034249;28;20030;-39
2021/09/04 00:20:03;;;;;;;25.10;13.95;;;;;;;13.98;79.05;101955.44;5034351;28;20181;-39
2021/09/04 00:22:28;;;;;;;26.45;14.77;;;;;;;13.97;79.10;101964.59;5042292;28;20041;-39
2021/09/04 00:24:53;;;;;;;29.27;13.68;;;;;;;13.95;79.25;101966.63;5052893;28;20021;-39
2021/09/04 00:27:19;;;;;;;25.55;13.63;;;;;;;13.95;79.06;101955.78;5053638;28;20056;-40
2021/09/04 00:29:44;;;;;;;25.20;13.60;;;;;;;13.91;79.03;101955.31;5053843;28;20029;-40
2021/09/04 00:32:10;;;;;;;29.38;13.63;;;;;;;13.87;79.24;101962.09;5034733;28;20037;-40
2021/09/04 00:34:36;;;;;;;26.73;14.55;;;;;;;13.86;79.19;101952.28;5053749;28;20082;-40
2021/09/04 00:37:01;;;;;;;34.78;14.35;;;;;;;13.80;79.44;101964.66;5053611;28;20035;-40
2021/09/04 00:39:27;;;;;;;27.70;14.13;;;;;;;13.82;79.52;101957.22;5053697;28;20037;-39
2021/09/04 00:41:52;;;;;;;28.95;13.45;;;;;;;13.82;79.34;101951.81;5034946;28;20033;-39
2021/09/04 00:44:20;;;;;;;25.70;14.00;;;;;;;13.75;79.53;101950.81;5034270;28;20052;-40
2021/09/04 00:46:45;;;;;;;31.85;14.63;;;;;;;13.77;79.24;101945.22;5033646;28;20068;-39
2021/09/04 00:49:11;;;;;;;33.20;14.25;;;;;;;13.75;79.41;101950.81;5033589;28;20109;-39
2021/09/04 00:51:36;;;;;;;25.67;14.10;;;;;;;13.66;79.56;101957.28;5034081;28;20029;-39
2021/09/04 00:54:02;;;;;;;24.35;12.85;;;;;;;13.64;79.65;101948.50;5033589;28;20116;-40
2021/09/04 00:56:28;;;;;;;29.45;14.23;;;;;;;13.61;79.71;101938.88;5033370;28;20449;-39
2021/09/04 00:58:54;;;;;;;31.10;14.35;;;;;;;13.60;79.76;101947.16;5033444;28;20025;-39
2021/09/04 01:01:19;;;;;;;29.45;13.48;;;;;;;13.55;79.84;101944.13;5034825;28;20091;-41
2021/09/04 01:03:44;;;;;;;26.67;13.80;;;;;;;13.55;79.91;101939.56;5050276;28;20051;-39
2021/09/04 01:06:14;;;;;;;23.95;13.30;;;;;;;13.54;79.66;101937.06;5053172;28;20041;-40
2021/09/04 01:08:43;;;;;;;25.52;13.73;;;;;;;13.54;80.01;101947.88;5051444;28;20033;-39
2021/09/04 01:11:09;;;;;;;31.15;14.30;;;;;;;13.49;80.09;101925.91;5040097;28;20026;-40
2021/09/04 01:13:37;;;;;;;28.02;13.65;;;;;;;13.50;80.09;101938.41;5033225;28;20117;-40
2021/09/04 01:16:03;;;;;;;27.73;14.20;;;;;;;13.45;80.09;101938.09;5032966;28;20029;-40
2021/09/04 01:18:29;;;;;;;28.92;14.15;;;;;;;13.43;80.17;101934.69;5042933;28;20104;-40
2021/09/04 01:20:54;;;;;;;26.92;13.35;;;;;;;13.39;80.36;101931.50;5043664;28;20056;-40
2021/09/04 01:23:20;;;;;;;22.50;13.48;;;;;;;13.38;80.40;101930.69;5051542;28;20037;-40
2021/09/04 01:25:51;;;;;;;29.42;13.32;;;;;;;13.41;80.30;101936.75;5052969;28;20036;-40
2021/09/04 01:28:16;;;;;;;22.02;13.02;;;;;;;13.41;80.16;101931.34;5038026;28;20045;-40
2021/09/04 01:30:41;;;;;;;29.33;13.52;;;;;;;13.38;80.06;101937.94;5041323;28;20033;-40
2021/09/04 01:33:10;;;;;;;30.30;13.65;;;;;;;13.38;80.00;101938.78;5052125;28;20033;-40
2021/09/04 01:35:35;;;;;;;28.10;13.00;;;;;;;13.34;80.43;101942.84;5052757;28;20037;-40
2021/09/04 01:38:00;;;;;;;22.67;12.52;;;;;;;13.35;80.34;101936.44;5051314;28;20043;-40
2021/09/04 01:40:26;;;;;;;30.27;12.90;;;;;;;13.34;80.26;101940.13;5051332;28;20025;-39
2021/09/04 01:42:51;;;;;;;33.33;13.70;;;;;;;13.32;80.46;101928.69;5051828;28;20029;-40
2021/09/04 01:45:17;;;;;;;32.30;13.93;;;;;;;13.30;80.32;101933.41;5047459;28;20146;-39
2021/09/04 01:47:43;;;;;;;32.08;14.07;;;;;;;13.26;80.67;101918.53;5032633;28;20035;-39
2021/09/04 01:50:09;;;;;;;24.40;12.90;;;;;;;13.19;80.97;101917.50;5037500;28;20060;-40
2021/09/04 01:52:38;;;;;;;37.15;13.48;;;;;;;13.21;80.94;101923.59;5043267;28;20037;-39
2021/09/04 01:55:05;;;;;;;23.77;14.05;;;;;;;13.20;80.94;101924.63;5031399;28;20057;-40
2021/09/04 01:57:30;;;;;;;35.58;14.07;;;;;;;13.17;81.06;101925.81;5032736;28;20053;-40
2021/09/04 01:59:55;;;;;;;23.52;13.43;;;;;;;13.15;81.09;101921.59;5032556;28;20033;-41
2021/09/04 02:02:20;;;;;;;25.92;13.85;;;;;;;13.13;81.16;101924.44;5032404;28;20029;-40
2021/09/04 02:04:46;;;;;;;28.58;13.63;;;;;;;13.17;80.92;101924.97;5032719;28;20063;-40
2021/09/04 02:07:11;;;;;;;28.00;13.45;;;;;;;13.14;81.05;101923.44;5032837;28;20037;-40
2021/09/04 02:09:36;;;;;;;34.85;13.82;;;;;;;13.14;80.92;101918.03;5032843;28;20034;-40
2021/09/04 02:12:02;;;;;;;29.08;14.05;;;;;;;13.11;81.26;101921.09;5034420;28;20059;-41
2021/09/04 02:14:27;;;;;;;25.00;13.68;;;;;;;13.11;81.15;101917.53;5032589;28;20030;-40
2021/09/04 02:16:53;;;;;;;23.50;13.27;;;;;;;13.07;81.27;101910.78;5032621;28;20061;-41
2021/09/04 02:19:18;;;;;;;25.92;14.02;;;;;;;13.06;81.30;101906.38;5032599;28;20053;-39
2021/09/04 02:21:43;;;;;;;28.80;13.18;;;;;;;13.03;81.50;101907.56;5033484;28;20025;-40
2021/09/04 02:24:08;;;;;;;31.75;13.30;;;;;;;13.07;81.31;101899.97;5050764;28;20032;-40
2021/09/04 02:26:34;;;;;;;28.67;13.20;;;;;;;13.07;81.22;101908.09;5032596;28;20136;-40
2021/09/04 02:28:59;;;;;;;26.17;13.35;;;;;;;13.04;81.37;101917.38;5032234;28;20033;-39
2021/09/04 02:31:25;;;;;;;28.60;13.77;;;;;;;13.01;81.62;101908.78;5035977;28;20072;-39
2021/09/04 02:33:52;;;;;;;32.58;13.00;;;;;;;12.96;81.70;101904.72;5046970;28;20046;-40
2021/09/04 02:36:17;;;;;;;26.23;13.82;;;;;;;13.01;81.54;101909.63;5036230;28;20033;-40
2021/09/04 02:38:42;;;;;;;27.70;13.25;;;;;;;12.96;81.78;101903.91;5036393;28;20071;-40
2021/09/04 02:41:07;;;;;;;34.38;13.82;;;;;;;12.94;81.78;101901.34;5049378;28;20441;-41
2021/09/04 02:43:33;;;;;;;28.08;13.98;;;;;;;12.97;81.64;101902.88;5039009;28;20381;-40
2021/09/04 02:45:58;;;;;;;27.85;14.40;;;;;;;12.97;81.77;101905.56;5035493;28;20493;-40
2021/09/04 02:48:23;;;;;;;27.55;13.63;;;;;;;12.96;81.88;101909.28;5035754;28;20036;-41
2021/09/04 02:50:49;;;;;;;32.75;14.30;;;;;;;12.95;81.90;101908.47;5035786;28;20076;-39
2021/09/04 02:53:14;;;;;;;28.95;13.82;;;;;;;12.85;82.24;101912.31;5047710;28;20068;-39
2021/09/04 02:55:39;;;;;;;31.38;13.95;;;;;;;12.87;82.26;101913.84;5053777;28;20063;-40
2021/09/04 02:58:05;;;;;;;33.72;15.40;;;;;;;12.88;82.16;101912.84;5055543;28;20112;-41
2021/09/04 03:00:30;;;;;;;30.27;14.68;;;;;;;12.84;82.32;101913.34;5054372;28;20079;-39
2021/09/04 03:02:55;;;;;;;32.63;15.07;;;;;;;12.85;82.29;101910.50;5045220;28;20045;-40
2021/09/04 03:05:21;;;;;;;23.83;14.45;;;;;;;12.82;82.44;101909.97;5036362;28;20057;-39
2021/09/04 03:07:47;;;;;;;31.63;14.50;;;;;;;12.78;82.53;101900.53;5035284;28;20112;-41
2021/09/04 03:10:12;;;;;;;32.40;14.68;;;;;;;12.78;82.59;101901.38;5052475;28;20033;-40
2021/09/04 03:12:39;;;;;;;27.67;14.40;;;;;;;12.77;82.64;101899.72;5054008;28;20037;-39
2021/09/04 03:15:05;;;;;;;30.38;14.45;;;;;;;12.71;82.84;101892.25;5054993;28;20423;-40
2021/09/04 03:17:30;;;;;;;30.85;14.80;;;;;;;12.67;83.00;101896.34;5050096;28;20025;-40
2021/09/04 03:19:55;;;;;;;29.58;15.35;;;;;;;12.70;83.01;101890.59;5034740;28;20050;-40
2021/09/04 03:22:21;;;;;;;34.72;16.27;;;;;;;12.69;83.21;101896.97;5039348;28;20040;-40
2021/09/04 03:24:46;;;;;;;32.63;15.32;;;;;;;12.66;83.30;101889.22;5050983;28;20029;-40
2021/09/04 03:27:11;;;;;;;32.83;15.65;;;;;;;12.64;83.18;101892.13;5046163;28;20040;-40
2021/09/04 03:29:37;;;;;;;36.20;16.35;;;;;;;12.66;83.12;101889.22;5034700;28;20037;-39
2021/09/04 03:32:02;;;;;;;32.05;15.80;;;;;;;12.63;83.22;101889.56;5034746;28;20051;-40
2021/09/04 03:34:27;;;;;;;32.15;16.20;;;;;;;12.64;83.38;101891.28;5034541;28;20512;-39
2021/09/04 03:36:53;;;;;;;29.95;16.00;;;;;;;12.66;83.36;101883.81;5042895;28;20025;-41
2021/09/04 03:39:18;;;;;;;33.00;17.23;;;;;;;12.72;83.21;101893.97;5048644;28;20055;-40
2021/09/04 03:41:43;;;;;;;38.20;17.10;;;;;;;12.71;83.28;101897.66;5034265;28;20029;-40
2021/09/04 03:44:09;;;;;;;36.50;16.50;;;;;;;12.75;83.29;101896.31;5050036;28;20029;-40
2021/09/04 03:46:34;;;;;;;33.28;16.27;;;;;;;12.80;82.96;101896.66;5053658;28;20095;-39
2021/09/04 03:49:00;;;;;;;36.33;16.95;;;;;;;12.82;83.18;101894.63;5039019;28;20087;-40
2021/09/04 03:51:26;;;;;;;33.10;17.25;;;;;;;12.84;83.19;101889.88;5033336;28;20041;-40
2021/09/04 03:53:52;;;;;;;33.50;17.13;;;;;;;12.86;83.13;101895.97;5036753;28;20037;-41
2021/09/04 03:56:17;;;;;;;50.40;18.00;;;;;;;12.89;83.28;101901.00;5033881;28;20037;-39
2021/09/04 03:58:42;;;;;;;32.53;16.50;;;;;;;12.92;83.19;101900.66;5049898;28;20036;-39
2021/09/04 04:01:08;;;;;;;35.28;16.55;;;;;;;13.00;82.94;101907.09;5054046;28;20025;-41
2021/09/04 04:03:33;;;;;;;32.28;17.35;;;;;;;13.03;82.85;101907.56;5053912;28;20404;-40
2021/09/04 04:05:58;;;;;;;37.08;17.17;;;;;;;13.06;82.94;101909.09;5054394;28;20032;-39
2021/09/04 04:08:24;;;;;;;40.78;17.88;;;;;;;13.06;83.05;101909.09;5039420;28;20021;-37
2021/09/04 04:10:49;;;;;;;28.83;16.65;;;;;;;13.08;83.07;101905.19;5053854;28;20476;-39
2021/09/04 04:13:14;;;;;;;37.15;18.83;;;;;;;13.09;82.96;101908.78;5044886;28;20037;-40
2021/09/04 04:15:40;;;;;;;37.70;18.20;;;;;;;13.08;83.33;101904.38;5034044;28;20038;-40
2021/09/04 04:18:05;;;;;;;35.75;18.45;;;;;;;13.10;83.48;101908.56;5033898;28;20033;-40
2021/09/04 04:20:30;;;;;;;41.13;18.75;;;;;;;13.14;83.21;101914.50;5035466;28;20111;-39
2021/09/04 04:22:55;;;;;;;36.65;18.70;;;;;;;13.16;83.19;101907.91;5043001;28;20123;-40
2021/09/04 04:25:21;;;;;;;34.85;18.23;;;;;;;13.18;83.14;101905.00;5051287;28;20033;-41
2021/09/04 04:27:46;;;;;;;41.92;20.20;;;;;;;13.15;83.19;101905.38;5052987;28;20052;-40
2021/09/04 04:30:12;;;;;;;35.22;18.45;;;;;;;13.20;83.14;101908.41;5036714;28;20044;-40
2021/09/04 04:32:37;;;;;;;38.00;19.00;;;;;;;13.16;83.40;101899.81;5033582;28;20052;-38
2021/09/04 04:35:03;;;;;;;32.88;19.40;;;;;;;13.21;83.18;101901.97;5033823;28;20034;-40
2021/09/04 04:37:28;;;;;;;39.72;18.95;;;;;;;13.27;82.78;101904.03;5033782;28;20092;-39
2021/09/04 04:39:53;;;;;;;43.17;19.60;;;;;;;13.30;82.84;101913.66;5033710;28;20026;-39
2021/09/04 04:42:19;;;;;;;42.53;20.08;;;;;;;13.28;82.89;101915.69;5050093;28;20062;-40
2021/09/04 04:44:44;;;;;;;42.70;20.70;;;;;;;13.28;82.99;101915.69;5053180;28;20354;-39
2021/09/04 04:47:09;;;;;;;42.65;20.80;;;;;;;13.22;83.41;101910.91;5052738;28;20116;-41
2021/09/04 04:49:35;;;;;;;43.80;19.98;;;;;;;13.22;83.31;101910.91;5053304;28;20033;-40
2021/09/04 04:52:00;;;;;;;45.53;20.67;;;;;;;13.20;83.53;101911.09;5050386;28;20037;-40
2021/09/04 04:54:26;;;;;;;39.20;19.75;;;;;;;13.18;83.83;101915.81;5033447;28;20033;-40
2021/09/04 04:56:52;;;;;;;42.63;19.33;;;;;;;13.22;83.70;101917.19;5033187;28;20029;-40
2021/09/04 04:59:17;;;;;;;44.30;18.98;;;;;;;13.25;83.43;101916.84;5032698;28;20025;-39
2021/09/04 05:01:42;;;;;;;46.58;19.90;;;;;;;13.25;83.49;101922.25;5032951;28;20033;-39
2021/09/04 05:04:08;;;;;;;38.92;19.73;;;;;;;13.30;83.26;101924.47;5052839;28;20020;-38
2021/09/04 05:06:33;;;;;;;41.70;19.83;;;;;;;13.31;83.26;101923.44;5053530;28;20052;-39
2021/09/04 05:08:58;;;;;;;41.78;20.48;;;;;;;13.29;83.18;101917.34;5051516;28;20037;-40
2021/09/04 05:11:24;;;;;;;40.53;19.85;;;;;;;13.29;83.21;101922.75;5053300;28;20029;-40
2021/09/04 05:13:49;;;;;;;40.95;18.83;;;;;;;13.36;83.03;101921.88;5047856;28;20029;-40
2021/09/04 05:16:15;;;;;;;38.70;19.63;;;;;;;13.33;83.29;101922.25;5044510;28;20075;-40
2021/09/04 05:18:42;;;;;;;43.30;20.70;;;;;;;13.35;83.05;101925.63;5035824;28;20039;-39
2021/09/04 05:21:07;;;;;;;42.17;20.08;;;;;;;13.42;82.73;101933.03;5033747;28;20452;-40
2021/09/04 05:23:32;;;;;;;38.72;19.45;;;;;;;13.34;82.90;101937.44;5042480;28;20044;-39
2021/09/04 05:25:58;;;;;;;41.75;20.85;;;;;;;13.31;83.17;101931.53;5034444;28;20076;-40
2021/09/04 05:28:23;;;;;;;46.67;19.90;;;;;;;13.38;83.06;101930.69;5050270;28;20032;-39
2021/09/04 05:30:48;;;;;;;38.67;20.48;;;;;;;13.38;83.21;101933.38;5054424;28;20032;-40
2021/09/04 05:33:14;;;;;;;34.50;18.65;;;;;;;13.37;83.00;101937.09;5065891;28;20447;-40
2021/09/04 05:35:39;;;;;;;42.95;19.27;;;;;;;13.36;83.04;101932.72;5068325;28;20538;-39
2021/09/04 05:38:04;;;;;;;41.83;19.95;;;;;;;13.39;83.00;101932.34;5069411;28;20465;-40
2021/09/04 10:41:48;;;;;;;13.65;9.43;;;;;;;18.13;62.81;101923.75;5087382;27;1212477;-39
2021/09/04 10:44:14;;;;;;;18.15;9.45;;;;;;;18.35;61.73;101913.53;5109970;28;20107;-41
2021/09/04 10:46:39;;;;;;;14.05;9.20;;;;;;;18.43;61.27;101916.91;5110076;28;20020;-39
2021/09/04 10:49:04;;;;;;;16.77;8.88;;;;;;;18.60;61.52;101906.44;5108034;28;20054;-39
2021/09/04 10:51:43;;;;;;;16.77;9.20;;;;;;;18.79;60.51;101906.66;5105409;28;20032;-39
2021/09/04 10:54:09;;;;;;;13.32;9.48;;;;;;;18.83;60.80;101905.22;5102976;28;20387;-40
2021/09/04 10:56:37;;;;;;;19.52;10.40;;;;;;;18.98;61.27;101904.97;5089596;28;20099;-41
2021/09/04 10:59:02;;;;;;;20.92;10.30;;;;;;;19.11;59.96;101910.41;5071345;28;20089;-39
2021/09/04 11:01:36;;;;;;;16.10;9.55;;;;;;;19.30;60.97;101906.81;5077037;28;20484;-40
2021/09/04 11:04:02;;;;;;;17.83;9.20;;;;;;;19.42;60.17;101908.88;5083186;28;20051;-40
2021/09/04 11:06:27;;;;;;;18.40;10.73;;;;;;;19.36;59.73;101910.56;5070649;28;20460;-40
2021/09/04 11:08:54;;;;;;;16.67;9.30;;;;;;;19.76;59.44;101898.69;5069515;28;20482;-41
2021/09/04 11:11:36;;;;;;;16.15;9.30;;;;;;;20.55;58.01;101914.63;5087972;28;20032;-39
2021/09/04 11:14:15;;;;;;;15.93;9.48;;;;;;;21.45;53.65;101913.34;5088929;28;20036;-40
2021/09/04 11:16:54;;;;;;;18.73;10.00;;;;;;;21.49;52.63;101920.06;5089052;28;20040;-40
2021/09/04 11:19:28;;;;;;;15.27;9.82;;;;;;;22.42;50.75;101916.09;5089254;28;20023;-40
2021/09/04 11:22:06;;;;;;;16.40;9.27;;;;;;;23.07;49.72;101909.75;5088986;28;20036;-41
2021/09/04 11:24:40;;;;;;;14.15;9.15;;;;;;;23.43;48.81;101919.63;5067783;28;20024;-41
2021/09/04 11:27:05;;;;;;;14.32;9.90;;;;;;;23.77;47.89;101907.94;5088372;28;20032;-41
2021/09/04 11:29:38;;;;;;;13.10;9.85;;;;;;;24.24;46.76;101914.06;5089138;28;20384;-40
2021/09/04 11:32:04;;;;;;;16.88;10.43;;;;;;;24.48;45.90;101912.03;5089392;28;20024;-40
2021/09/04 11:34:57;;;;;;;19.25;9.38;;;;;;;24.41;46.48;101919.63;5083367;28;20033;-40
2021/09/04 11:37:24;;;;;;;13.85;9.82;;;;;;;24.27;46.66;101908.06;5079002;28;20063;-40
2021/09/04 11:39:52;;;;;;;15.48;10.23;;;;;;;24.49;45.53;101899.13;5088679;28;20036;-40
2021/09/04 11:42:28;;;;;;;16.85;9.45;;;;;;;24.74;45.37;101907.78;5089210;28;20028;-40
2021/09/04 11:45:19;;;;;;;17.10;10.80;;;;;;;24.68;45.22;101902.47;5088980;28;20032;-41
2021/09/04 11:47:48;;;;;;;16.45;10.52;;;;;;;24.68;45.26;101906.06;5085614;28;20479;-41
2021/09/04 11:50:24;;;;;;;15.95;10.65;;;;;;;24.74;45.28;101898.72;5089242;28;20103;-41
2021/09/04 11:52:50;;;;;;;17.38;10.98;;;;;;;24.88;44.88;101902.78;5077571;28;20028;-41
2021/09/04 11:55:26;;;;;;;16.80;11.50;;;;;;;24.49;45.08;101904.66;5075108;28;20090;-41
2021/09/04 11:57:57;;;;;;;19.10;10.40;;;;;;;24.39;46.35;101897.00;5075254;28;20036;-39
2021/09/04 12:00:27;;;;;;;17.38;11.25;;;;;;;24.42;45.95;101901.19;5072018;28;20383;-40
2021/09/04 12:02:59;;;;;;;13.88;10.43;;;;;;;24.75;45.53;101900.38;5063215;28;20029;-41
2021/09/04 12:05:32;;;;;;;14.95;10.02;;;;;;;25.02;45.13;101892.25;5075094;28;20029;-41
2021/09/04 12:08:03;;;;;;;16.88;11.35;;;;;;;25.31;44.20;101905.91;5074838;28;20037;-42
2021/09/04 12:10:30;;;;;;;22.23;10.77;;;;;;;25.36;43.75;101903.22;5052243;28;20039;-41
2021/09/04 12:13:02;;;;;;;15.10;10.85;;;;;;;25.01;44.64;101903.50;5055892;28;20029;-40
2021/09/04 12:15:29;;;;;;;16.30;9.75;;;;;;;25.49;44.64;101891.81;5075038;28;20450;-41
2021/09/04 12:18:03;;;;;;;14.10;11.20;;;;;;;25.49;43.55;101902.84;5063187;28;20025;-41
2021/09/04 12:20:29;;;;;;;15.73;11.63;;;;;;;25.51;43.62;101903.41;5059080;28;20472;-41
2021/09/04 12:22:59;;;;;;;14.90;10.50;;;;;;;25.69;44.36;101899.47;5074636;28;20365;-41
2021/09/04 12:25:32;;;;;;;17.35;10.68;;;;;;;25.62;43.90;101907.13;5072845;28;20441;-40
2021/09/04 12:28:07;;;;;;;15.32;9.98;;;;;;;25.51;43.47;101906.16;5059771;28;20417;-40
2021/09/04 12:30:34;;;;;;;15.88;10.32;;;;;;;25.40;44.14;101887.81;5067257;28;20028;-40
2021/09/04 12:33:05;;;;;;;16.73;10.77;;;;;;;25.33;43.56;101892.69;5064255;28;20115;-41
2021/09/04 12:36:03;;;;;;;16.85;10.50;;;;;;;25.24;43.86;101894.22;5067266;28;20139;-40
2021/09/04 12:38:33;;;;;;;16.70;10.98;;;;;;;25.13;45.22;101885.78;5074513;28;20064;-39
2021/09/04 12:41:04;;;;;;;15.75;10.85;;;;;;;25.39;44.30;101886.19;5074845;28;20095;-40
2021/09/04 12:43:30;;;;;;;15.50;11.77;;;;;;;25.15;44.35;101880.91;5075310;28;20025;-39
2021/09/04 12:46:02;;;;;;;13.98;10.15;;;;;;;25.12;45.00;101886.91;5075227;28;20039;-41
2021/09/04 12:48:33;;;;;;;19.60;10.95;;;;;;;24.94;44.71;101884.44;5057744;28;20023;-41
2021/09/04 12:51:18;;;;;;;15.13;11.02;;;;;;;24.90;45.85;101888.75;5057566;28;20141;-41
2021/09/04 12:54:00;;;;;;;17.77;10.95;;;;;;;25.01;45.11;101879.56;5072471;28;20039;-41
2021/09/04 12:56:43;;;;;;;15.50;10.63;;;;;;;25.37;44.46;101888.34;5071731;28;20035;-39
2021/09/04 12:59:10;;;;;;;17.67;10.43;;;;;;;25.34;44.45;101886.94;5071407;28;20370;-38
2021/09/04 13:01:36;;;;;;;17.08;10.60;;;;;;;25.29;44.77;101886.88;5070171;28;20027;-39
2021/09/04 13:04:03;;;;;;;13.93;10.85;;;;;;;24.95;45.34;101897.09;5050242;28;20056;-40
2021/09/04 13:06:29;;;;;;;16.05;11.35;;;;;;;24.73;45.65;101889.63;5051527;28;20493;-40
2021/09/04 13:08:54;;;;;;;18.55;10.70;;;;;;;24.16;47.36;101884.22;5051282;28;20047;-41
2021/09/04 13:11:20;;;;;;;14.52;10.23;;;;;;;24.88;46.12;101885.41;5050911;28;20477;-39
2021/09/04 13:13:45;;;;;;;16.70;11.65;;;;;;;24.69;45.78;101893.94;5050959;28;20415;-39
2021/09/04 13:16:10;;;;;;;17.60;10.70;;;;;;;24.36;47.10;101877.41;5051316;28;20033;-39
2021/09/04 13:18:36;;;;;;;17.00;10.77;;;;;;;24.58;46.38;101874.78;5032724;28;20021;-39
2021/09/04 13:21:01;;;;;;;15.48;10.07;;;;;;;24.76;46.13;101882.78;5050635;28;20462;-39
2021/09/04 13:23:26;;;;;;;18.38;11.43;;;;;;;24.46;46.72;101870.19;5051165;28;20029;-38
2021/09/04 13:25:52;;;;;;;16.30;11.07;;;;;;;24.99;46.41;101876.25;5066465;28;20380;-40
2021/09/04 13:28:17;;;;;;;16.23;10.38;;;;;;;25.29;44.92;101875.00;5061391;28;20032;-39
2021/09/04 13:30:43;;;;;;;16.10;9.00;;;;;;;25.37;45.29;101871.81;5050670;28;20515;-40
2021/09/04 13:33:08;;;;;;;15.18;10.63;;;;;;;25.56;44.56;101864.03;5062668;28;20128;-40
2021/09/04 13:35:33;;;;;;;15.50;9.77;;;;;;;25.67;44.15;101881.53;5070712;28;20029;-40
2021/09/04 13:37:59;;;;;;;17.90;10.68;;;;;;;25.38;44.34;101877.09;5070664;28;20025;-39
2021/09/04 13:40:24;;;;;;;14.30;10.25;;;;;;;24.92;45.48;101870.91;5070243;28;20048;-40
2021/09/04 13:42:49;;;;;;;17.67;10.18;;;;;;;25.17;46.27;101867.72;5070463;28;20036;-39
2021/09/04 13:45:15;;;;;;;15.32;10.32;;;;;;;25.31;45.46;101872.84;5070541;28;20070;-39
2021/09/04 13:47:40;;;;;;;14.05;11.07;;;;;;;25.23;45.45;101865.03;5070778;28;20036;-40
2021/09/04 13:50:06;;;;;;;15.75;11.10;;;;;;;25.08;45.59;101865.59;5070516;28;20442;-38
2021/09/04 13:52:32;;;;;;;14.27;10.07;;;;;;;25.21;45.57;101868.03;5070333;28;20070;-39
2021/09/04 13:54:57;;;;;;;14.65;10.32;;;;;;;25.27;45.83;101863.41;5066058;28;20025;-40
2021/09/04 13:57:23;;;;;;;16.92;10.70;;;;;;;25.17;45.37;101861.34;5052888;28;20472;-40
2021/09/04 13:59:48;;;;;;;18.83;10.95;;;;;;;25.03;44.73;101857.28;5056278;28;20440;-39
2021/09/04 14:02:13;;;;;;;15.98;10.25;;;;;;;24.82;45.99;101845.13;5055252;28;20020;-39
2021/09/04 14:04:39;;;;;;;15.73;10.13;;;;;;;24.70;46.72;101846.09;5040579;28;20037;-39
2021/09/04 14:07:04;;;;;;;18.52;10.32;;;;;;;24.18;47.41;101843.56;5050109;28;20094;-40
2021/09/04 14:09:32;;;;;;;13.05;9.18;;;;;;;24.17;48.37;101846.53;5050218;28;20047;-39
2021/09/04 14:11:57;;;;;;;16.83;10.02;;;;;;;24.11;47.88;101837.38;5050270;28;20073;-40
2021/09/04 14:14:23;;;;;;;15.65;10.60;;;;;;;23.98;47.05;101834.94;5050155;28;20044;-40
2021/09/04 14:16:48;;;;;;;17.33;11.30;;;;;;;23.79;47.75;101840.66;5050646;28;20361;-41
2021/09/04 14:19:13;;;;;;;16.02;10.48;;;;;;;23.43;48.70;101831.69;5062404;28;20028;-39
2021/09/04 14:21:39;;;;;;;12.77;9.05;;;;;;;23.55;49.45;101828.91;5062074;28;20036;-41
2021/09/04 14:24:04;;;;;;;13.32;9.52;;;;;;;24.04;48.29;101826.53;5069347;28;20029;-39
2021/09/04 14:26:29;;;;;;;18.73;9.68;;;;;;;24.24;47.23;101831.53;5057271;28;20546;-39
2021/09/04 14:28:55;;;;;;;22.15;9.57;;;;;;;24.13;47.08;101829.72;5062236;28;20064;-40
2021/09/04 14:31:20;;;;;;;18.30;10.52;;;;;;;24.14;47.82;101825.88;5069957;28;20403;-40
2021/09/04 14:33:46;;;;;;;14.00;9.77;;;;;;;24.14;47.04;101822.28;5068954;28;20073;-40
2021/09/04 14:36:11;;;;;;;17.23;9.48;;;;;;;24.02;47.84;101822.38;5070201;28;20024;-40
2021/09/04 14:38:36;;;;;;;14.93;9.77;;;;;;;23.67;48.21;101831.59;5070295;28;20033;-40
2021/09/04 14:41:02;;;;;;;14.70;9.73;;;;;;;24.09;47.73;101829.38;5070347;28;20144;-41
2021/09/04 14:43:27;;;;;;;14.18;9.10;;;;;;;24.12;47.70;101822.56;5050939;28;20330;-39
2021/09/04 14:45:52;;;;;;;13.43;9.13;;;;;;;24.27;46.85;101820.03;5049774;28;20112;-41
2021/09/04 14:48:18;;;;;;;17.00;9.90;;;;;;;24.38;47.17;101825.72;5031984;28;20021;-40
2021/09/04 14:50:43;;;;;;;12.60;9.07;;;;;;;24.13;47.04;101821.47;5049427;28;20447;-40
2021/09/04 14:53:08;;;;;;;13.43;9.45;;;;;;;23.59;48.66;101816.34;5057545;28;20032;-39
2021/09/04 14:55:34;;;;;;;14.98;10.00;;;;;;;23.22;49.25;101816.72;5069984;28;20476;-40
2021/09/04 14:57:59;;;;;;;14.43;9.60;;;;;;;22.96;50.13;101807.09;5071165;28;20025;-40
2021/09/04 15:00:24;;;;;;;13.95;9.18;;;;;;;22.89;50.64;101800.84;5070751;28;20138;-40
2021/09/04 15:02:53;;;;;;;16.40;9.55;;;;;;;22.71;50.54;101806.47;5058182;28;20064;-39
2021/09/04 15:05:18;;;;;;;16.27;9.88;;;;;;;22.56;51.64;101809.69;5050088;28;20036;-40
2021/09/04 15:07:44;;;;;;;16.90;9.35;;;;;;;22.63;51.74;101798.63;5050421;28;20094;-41
2021/09/04 15:10:09;;;;;;;13.88;9.13;;;;;;;22.74;51.50;101806.00;5050391;28;20029;-43
2021/09/04 15:12:35;;;;;;;14.75;9.15;;;;;;;22.70;51.58;101799.34;5069235;28;20036;-40
2021/09/04 15:15:00;;;;;;;15.27;9.38;;;;;;;22.73;51.95;101799.69;5068250;28;20099;-40
2021/09/04 15:17:25;;;;;;;14.23;9.93;;;;;;;22.59;51.66;101809.22;5056665;28;20043;-41
2021/09/04 15:19:51;;;;;;;14.38;9.40;;;;;;;22.44;51.67;101801.47;5050117;28;20033;-41
2021/09/04 15:22:16;;;;;;;15.50;8.93;;;;;;;22.45;51.98;101797.66;5050345;28;20056;-39
2021/09/04 15:24:41;;;;;;;12.88;9.48;;;;;;;22.25;52.29;101802.63;5050495;28;20029;-41
2021/09/04 15:27:07;;;;;;;16.27;9.70;;;;;;;22.25;51.39;101808.13;5051613;28;20029;-41
2021/09/04 15:29:32;;;;;;;13.45;9.07;;;;;;;22.14;52.28;101805.13;5053909;28;20025;-40
2021/09/04 15:31:57;;;;;;;14.05;8.70;;;;;;;22.22;52.56;101809.47;5050256;28;20040;-41
2021/09/04 15:34:23;;;;;;;17.83;11.23;;;;;;;22.20;52.08;101799.81;5072794;28;20124;-39
2021/09/04 15:36:48;;;;;;;15.23;10.00;;;;;;;22.11;52.62;101802.00;5023171;28;20060;-41
2021/09/04 15:39:13;;;;;;;18.23;9.70;;;;;;;22.01;52.88;101801.72;5052917;28;20082;-40
2021/09/04 15:41:39;;;;;;;16.08;9.57;;;;;;;21.95;52.99;101806.25;5060724;28;20052;-40
2021/09/04 15:44:06;;;;;;;17.85;9.90;;;;;;;21.85;53.01;101797.75;5072656;28;20118;-40
2021/09/04 15:46:31;;;;;;;17.58;10.27;;;;;;;21.76;52.94;101793.69;5054389;28;20028;-41
2021/09/04 15:48:57;;;;;;;14.32;9.70;;;;;;;21.67;54.31;101799.50;5035791;28;20170;-41
2021/09/04 15:51:23;;;;;;;14.77;10.30;;;;;;;21.67;53.24;101799.50;5052653;28;20031;-39
2021/09/04 15:53:48;;;;;;;17.33;9.07;;;;;;;21.61;54.37;101808.63;5052548;28;20025;-40
2021/09/04 15:56:14;;;;;;;13.70;9.23;;;;;;;21.58;53.93;101808.28;5070595;28;20034;-39
2021/09/04 15:58:39;;;;;;;12.98;8.70;;;;;;;21.50;54.18;101803.94;5072050;28;20047;-40
2021/09/04 16:01:04;;;;;;;19.88;9.80;;;;;;;21.46;54.62;101805.50;5049607;28;20473;-39
2021/09/04 16:03:30;;;;;;;12.95;9.60;;;;;;;21.56;55.00;101802.19;5053979;28;20021;-40
2021/09/04 16:05:55;;;;;;;15.55;10.18;;;;;;;21.56;54.72;101805.75;5054058;28;20020;-41
2021/09/04 16:08:20;;;;;;;14.15;9.05;;;;;;;21.55;55.12;101801.34;5066785;28;20032;-41
2021/09/04 16:10:46;;;;;;;16.83;10.25;;;;;;;21.52;54.82;101796.34;5052767;28;20028;-40